createdAt,value
2017-09-09T00:00:51.391Z,990.34
2017-09-09T00:01:51.365Z,990.31
2017-09-09T00:02:51.347Z,990.38
2017-09-09T00:03:51.333Z,990.31
2017-09-09T00:04:51.320Z,990.25
2017-09-09T00:05:51.303Z,990.22
2017-09-09T00:06:51.280Z,990.23
2017-09-09T00:07:51.262Z,990.28
2017-09-09T00:08:51.243Z,990.3
2017-09-09T00:09:51.226Z,990.35
2017-09-09T00:10:51.211Z,990.34
2017-09-09T00:11:51.191Z,990.42
2017-09-09T00:12:51.183Z,990.37
2017-09-09T00:13:51.159Z,990.38
2017-09-09T00:14:51.142Z,990.33
2017-09-09T00:15:51.125Z,990.36
2017-09-09T00:16:51.110Z,990.43
2017-09-09T00:17:51.101Z,990.44
2017-09-09T00:18:51.071Z,990.39
2017-09-09T00:19:51.054Z,990.38
2017-09-09T00:20:51.042Z,990.35
2017-09-09T00:21:51.017Z,990.41
2017-09-09T00:22:51.000Z,990.36
2017-09-09T00:23:50.983Z,990.37
2017-09-09T00:24:50.970Z,990.38
2017-09-09T00:25:50.950Z,990.29
2017-09-09T00:26:50.929Z,990.31
2017-09-09T00:27:50.924Z,990.34
2017-09-09T00:28:50.898Z,990.28
2017-09-09T00:29:50.883Z,990.28
2017-09-09T00:30:50.860Z,990.31
2017-09-09T00:31:50.850Z,990.26
2017-09-09T00:32:50.832Z,990.26
2017-09-09T00:33:50.813Z,990.22
2017-09-09T00:34:50.790Z,990.2
2017-09-09T00:35:50.772Z,990.21
2017-09-09T00:36:50.761Z,990.18
2017-09-09T00:37:50.750Z,990.14
2017-09-09T00:38:50.720Z,990.16
2017-09-09T00:39:50.707Z,990.16
2017-09-09T00:40:50.690Z,990.18
2017-09-09T00:41:50.671Z,990.19
2017-09-09T00:42:50.652Z,990.16
2017-09-09T00:43:50.640Z,990.16
2017-09-09T00:44:50.620Z,990.16
2017-09-09T00:45:50.600Z,990.14
2017-09-09T00:46:50.581Z,990.18
2017-09-09T00:47:50.569Z,990.14
2017-09-09T00:48:50.550Z,990.16
2017-09-09T00:49:50.532Z,990.11
2017-09-09T00:50:50.522Z,990.13
2017-09-09T00:51:50.502Z,990.11
2017-09-09T00:52:50.480Z,990.09
2017-09-09T00:53:50.461Z,990.08
2017-09-09T00:54:50.449Z,990.07
2017-09-09T00:55:50.429Z,990.05
2017-09-09T00:56:50.410Z,990.07
2017-09-09T00:57:50.393Z,990.02
2017-09-09T00:58:50.380Z,990.01
2017-09-09T00:59:50.361Z,990.04
2017-09-09T01:00:50.343Z,990.05
2017-09-09T01:01:50.327Z,990.02
2017-09-09T01:02:50.311Z,989.99
2017-09-09T01:03:50.291Z,989.97
2017-09-09T01:04:50.271Z,990.03
2017-09-09T01:05:50.268Z,990.02
2017-09-09T01:06:50.237Z,990.05
2017-09-09T01:07:50.221Z,990.02
2017-09-09T01:08:50.201Z,990.05
2017-09-09T01:09:50.206Z,990.02
2017-09-09T01:10:50.170Z,990.01
2017-09-09T01:11:50.150Z,990.03
2017-09-09T01:12:50.133Z,990
2017-09-09T01:13:50.111Z,990.01
2017-09-09T01:14:50.095Z,990
2017-09-09T01:15:50.078Z,989.96
2017-09-09T01:16:50.061Z,989.94
2017-09-09T01:17:50.045Z,989.95
2017-09-09T01:18:50.031Z,989.98
2017-09-09T01:19:50.009Z,989.94
2017-09-09T01:20:50.001Z,989.92
2017-09-09T01:21:49.980Z,989.92
2017-09-09T01:22:49.954Z,989.92
2017-09-09T01:23:49.940Z,989.89
2017-09-09T01:24:49.921Z,989.89
2017-09-09T01:25:49.909Z,989.84
2017-09-09T01:26:49.889Z,989.8
2017-09-09T01:27:49.868Z,989.8
2017-09-09T01:28:49.850Z,989.78
2017-09-09T01:29:49.839Z,989.74
2017-09-09T01:30:49.815Z,989.76
2017-09-09T01:31:49.802Z,989.74
2017-09-09T01:32:49.780Z,989.73
2017-09-09T01:33:49.770Z,989.79
2017-09-09T01:34:49.749Z,989.75
2017-09-09T01:35:49.728Z,989.8
2017-09-09T01:36:49.718Z,989.74
2017-09-09T01:37:49.695Z,989.71
2017-09-09T01:38:49.678Z,989.76
2017-09-09T01:39:49.659Z,989.72
2017-09-09T01:40:49.644Z,989.73
2017-09-09T01:41:49.622Z,989.75
2017-09-09T01:42:49.607Z,989.74
2017-09-09T01:43:49.591Z,989.78
2017-09-09T01:44:49.571Z,989.77
2017-09-09T01:45:49.558Z,989.79
2017-09-09T01:46:49.563Z,989.72
2017-09-09T01:47:49.524Z,989.72
2017-09-09T01:48:49.502Z,989.73
2017-09-09T01:49:49.483Z,989.71
2017-09-09T01:50:49.466Z,989.65
2017-09-09T01:51:49.448Z,989.64
2017-09-09T01:52:49.428Z,989.62
2017-09-09T01:53:49.416Z,989.61
2017-09-09T01:54:49.405Z,989.56
2017-09-09T01:55:49.380Z,989.52
2017-09-09T01:56:49.359Z,989.53
2017-09-09T01:57:49.342Z,989.48
2017-09-09T01:58:49.327Z,989.45
2017-09-09T01:59:49.309Z,989.44
2017-09-09T02:00:49.288Z,989.44
2017-09-09T02:01:49.274Z,989.4
2017-09-09T02:02:49.256Z,989.4
2017-09-09T02:03:49.239Z,989.38
2017-09-09T02:04:49.221Z,989.42
2017-09-09T02:05:49.208Z,989.46
2017-09-09T02:06:49.190Z,989.5
2017-09-09T02:07:49.166Z,989.43
2017-09-09T02:08:49.158Z,989.44
2017-09-09T02:09:49.131Z,989.46
2017-09-09T02:10:49.113Z,989.46
2017-09-09T02:11:49.097Z,989.46
2017-09-09T02:12:49.088Z,989.44
2017-09-09T02:13:49.069Z,989.4
2017-09-09T02:14:49.049Z,989.37
2017-09-09T02:15:49.027Z,989.34
2017-09-09T02:16:49.011Z,989.38
2017-09-09T02:17:48.991Z,989.38
2017-09-09T02:18:48.981Z,989.41
2017-09-09T02:19:48.960Z,989.42
2017-09-09T02:20:48.938Z,989.41
2017-09-09T02:21:48.923Z,989.38
2017-09-09T02:22:48.906Z,989.41
2017-09-09T02:23:48.900Z,989.39
2017-09-09T02:24:48.870Z,989.4
2017-09-09T02:25:48.861Z,989.39
2017-09-09T02:26:48.838Z,989.36
2017-09-09T02:27:48.870Z,989.38
2017-09-09T02:28:48.801Z,989.39
2017-09-09T02:29:48.861Z,989.42
2017-09-09T02:30:48.761Z,989.36
2017-09-09T02:31:48.855Z,989.36
2017-09-09T02:32:48.728Z,989.37
2017-09-09T02:33:48.711Z,989.41
2017-09-09T02:34:48.691Z,989.44
2017-09-09T02:35:48.781Z,989.41
2017-09-09T02:36:48.653Z,989.36
2017-09-09T02:37:48.688Z,989.41
2017-09-09T02:38:48.624Z,989.38
2017-09-09T02:39:48.609Z,989.32
2017-09-09T02:40:48.589Z,989.32
2017-09-09T02:41:48.669Z,989.26
2017-09-09T02:42:48.550Z,989.24
2017-09-09T02:43:48.534Z,989.23
2017-09-09T02:44:48.521Z,989.2
2017-09-09T02:45:48.500Z,989.2
2017-09-09T02:46:48.482Z,989.2
2017-09-09T02:47:48.558Z,989.16
2017-09-09T02:48:48.442Z,989.21
2017-09-09T02:49:48.428Z,989.25
2017-09-09T02:50:48.407Z,989.26
2017-09-09T02:51:48.395Z,989.25
2017-09-09T02:52:48.370Z,989.19
2017-09-09T02:53:48.406Z,989.18
2017-09-09T02:54:48.333Z,989.16
2017-09-09T02:55:48.327Z,989.18
2017-09-09T02:56:48.306Z,989.16
2017-09-09T02:57:48.284Z,989.18
2017-09-09T02:58:48.265Z,989.15
2017-09-09T02:59:48.296Z,989.13
2017-09-09T03:00:48.227Z,989.11
2017-09-09T03:01:48.208Z,989.11
2017-09-09T03:02:48.201Z,989.13
2017-09-09T03:03:48.178Z,989.11
2017-09-09T03:04:48.159Z,989.13
2017-09-09T03:05:48.143Z,989.09
2017-09-09T03:06:48.120Z,989.11
2017-09-09T03:07:48.109Z,989.09
2017-09-09T03:08:48.089Z,989.1
2017-09-09T03:09:48.069Z,989.12
2017-09-09T03:10:48.058Z,989.1
2017-09-09T03:11:48.032Z,989.08
2017-09-09T03:12:48.016Z,989.08
2017-09-09T03:13:47.998Z,989.06
2017-09-09T03:14:47.984Z,989.01
2017-09-09T03:15:47.960Z,988.97
2017-09-09T03:16:47.945Z,988.93
2017-09-09T03:17:47.925Z,988.96
2017-09-09T03:18:47.906Z,988.98
2017-09-09T03:19:47.893Z,988.99
2017-09-09T03:20:47.874Z,989.05
2017-09-09T03:21:47.858Z,989
2017-09-09T03:22:47.839Z,989.01
2017-09-09T03:23:47.820Z,988.99
2017-09-09T03:24:47.799Z,989
2017-09-09T03:25:47.783Z,988.97
2017-09-09T03:26:47.768Z,989
2017-09-09T03:27:47.747Z,989.01
2017-09-09T03:28:47.728Z,988.96
2017-09-09T03:29:47.712Z,988.95
2017-09-09T03:30:47.691Z,988.97
2017-09-09T03:31:47.679Z,988.96
2017-09-09T03:32:47.660Z,988.9
2017-09-09T03:33:47.636Z,988.92
2017-09-09T03:34:47.622Z,988.87
2017-09-09T03:35:47.605Z,988.85
2017-09-09T03:36:47.587Z,988.81
2017-09-09T03:37:47.568Z,988.77
2017-09-09T03:38:47.549Z,988.79
2017-09-09T03:39:47.554Z,988.74
2017-09-09T03:40:47.520Z,988.66
2017-09-09T03:41:47.495Z,988.63
2017-09-09T03:42:47.479Z,988.64
2017-09-09T03:43:47.460Z,988.66
2017-09-09T03:44:47.439Z,988.66
2017-09-09T03:45:47.427Z,988.64
2017-09-09T03:46:47.408Z,988.63
2017-09-09T03:47:47.389Z,988.64
2017-09-09T03:48:47.370Z,988.62
2017-09-09T03:49:47.350Z,988.58
2017-09-09T03:50:47.336Z,988.57
2017-09-09T03:51:47.321Z,988.56
2017-09-09T03:52:47.299Z,988.52
2017-09-09T03:53:47.278Z,988.48
2017-09-09T03:54:47.269Z,988.44
2017-09-09T03:55:47.248Z,988.43
2017-09-09T03:56:47.226Z,988.39
2017-09-09T03:57:47.223Z,988.39
2017-09-09T03:58:47.192Z,988.44
2017-09-09T03:59:47.189Z,988.42
2017-09-09T04:00:47.161Z,988.45
2017-09-09T04:01:47.138Z,988.41
2017-09-09T04:02:47.119Z,988.44
2017-09-09T04:03:47.101Z,988.38
2017-09-09T04:04:47.092Z,988.37
2017-09-09T04:05:47.065Z,988.34
2017-09-09T04:06:47.045Z,988.32
2017-09-09T04:07:47.028Z,988.32
2017-09-09T04:08:47.011Z,988.34
2017-09-09T04:09:47.004Z,988.29
2017-09-09T04:10:46.981Z,988.28
2017-09-09T04:11:46.960Z,988.28
2017-09-09T04:12:46.939Z,988.3
2017-09-09T04:13:46.921Z,988.29
2017-09-09T04:14:46.909Z,988.29
2017-09-09T04:15:46.890Z,988.27
2017-09-09T04:16:46.870Z,988.26
2017-09-09T04:17:46.849Z,988.23
2017-09-09T04:18:46.829Z,988.22
2017-09-09T04:19:46.811Z,988.18
2017-09-09T04:20:46.797Z,988.15
2017-09-09T04:21:46.779Z,988.12
2017-09-09T04:22:46.757Z,988.11
2017-09-09T04:23:46.742Z,988.1
2017-09-09T04:24:46.722Z,988.05
2017-09-09T04:25:46.709Z,988.02
2017-09-09T04:26:46.687Z,988.02
2017-09-09T04:27:46.669Z,988.04
2017-09-09T04:28:46.652Z,988.05
2017-09-09T04:29:46.635Z,988.13
2017-09-09T04:30:46.620Z,988.12
2017-09-09T04:31:46.601Z,988.13
2017-09-09T04:32:46.579Z,988.12
2017-09-09T04:33:46.558Z,988.14
2017-09-09T04:34:46.540Z,988.13
2017-09-09T04:35:46.530Z,988.11
2017-09-09T04:36:46.503Z,988.16
2017-09-09T04:37:46.492Z,988.14
2017-09-09T04:38:46.470Z,988.14
2017-09-09T04:39:46.462Z,988.16
2017-09-09T04:40:46.436Z,988.14
2017-09-09T04:41:46.416Z,988.13
2017-09-09T04:42:46.398Z,988.13
2017-09-09T04:43:46.389Z,988.09
2017-09-09T04:44:46.369Z,988.07
2017-09-09T04:45:46.349Z,988.1
2017-09-09T04:46:46.333Z,988.08
2017-09-09T04:47:46.307Z,988.09
2017-09-09T04:48:46.302Z,988.08
2017-09-09T04:49:46.275Z,988.05
2017-09-09T04:50:46.259Z,988.07
2017-09-09T04:51:46.241Z,988.05
2017-09-09T04:52:46.219Z,988.08
2017-09-09T04:53:46.209Z,988.07
2017-09-09T04:54:46.188Z,988.04
2017-09-09T04:55:46.170Z,988.02
2017-09-09T04:56:46.148Z,988
2017-09-09T04:57:46.133Z,987.96
2017-09-09T04:58:46.116Z,987.94
2017-09-09T04:59:46.096Z,987.97
2017-09-09T05:00:46.081Z,987.99
2017-09-09T05:01:46.059Z,988
2017-09-09T05:02:46.041Z,987.97
2017-09-09T05:03:46.022Z,987.95
2017-09-09T05:04:46.006Z,987.95
2017-09-09T05:05:45.995Z,987.96
2017-09-09T05:06:45.969Z,987.97
2017-09-09T05:07:45.958Z,987.96
2017-09-09T05:08:45.939Z,987.92
2017-09-09T05:09:45.919Z,987.88
2017-09-09T05:10:45.897Z,987.9
2017-09-09T05:11:45.882Z,987.87
2017-09-09T05:12:45.865Z,987.84
2017-09-09T05:13:45.845Z,987.82
2017-09-09T05:14:45.830Z,987.84
2017-09-09T05:15:45.809Z,987.84
2017-09-09T05:16:45.798Z,987.82
2017-09-09T05:17:45.777Z,987.85
2017-09-09T05:18:45.761Z,987.85
2017-09-09T05:19:45.740Z,987.79
2017-09-09T05:20:45.720Z,987.8
2017-09-09T05:21:45.721Z,987.8
2017-09-09T05:22:45.691Z,987.84
2017-09-09T05:23:45.669Z,987.78
2017-09-09T05:24:45.650Z,987.88
2017-09-09T05:25:45.633Z,987.87
2017-09-09T05:26:45.614Z,987.88
2017-09-09T05:27:45.600Z,987.9
2017-09-09T05:28:45.580Z,987.9
2017-09-09T05:29:45.565Z,987.9
2017-09-09T05:30:45.542Z,987.93
2017-09-09T05:31:45.531Z,987.95
2017-09-09T05:32:45.514Z,987.92
2017-09-09T05:33:45.491Z,987.91
2017-09-09T05:34:45.472Z,987.88
2017-09-09T05:35:45.453Z,987.91
2017-09-09T05:36:45.437Z,987.94
2017-09-09T05:37:45.420Z,987.9
2017-09-09T05:38:45.401Z,987.89
2017-09-09T05:39:45.381Z,987.89
2017-09-09T05:40:45.374Z,987.9
2017-09-09T05:41:45.350Z,987.89
2017-09-09T05:42:45.327Z,987.85
2017-09-09T05:43:45.309Z,987.9
2017-09-09T05:44:45.293Z,987.88
2017-09-09T05:45:45.281Z,987.89
2017-09-09T05:46:45.257Z,987.89
2017-09-09T05:47:45.241Z,987.91
2017-09-09T05:48:45.220Z,987.86
2017-09-09T05:49:45.203Z,987.84
2017-09-09T05:50:45.189Z,987.81
2017-09-09T05:51:45.169Z,987.8
2017-09-09T05:52:45.151Z,987.78
2017-09-09T05:53:45.133Z,987.78
2017-09-09T05:54:45.120Z,987.84
2017-09-09T05:55:45.099Z,987.85
2017-09-09T05:56:45.081Z,987.82
2017-09-09T05:57:45.063Z,987.84
2017-09-09T05:58:45.040Z,987.84
2017-09-09T05:59:45.031Z,987.82
2017-09-09T06:00:45.010Z,987.83
2017-09-09T06:01:44.991Z,987.82
2017-09-09T06:02:44.969Z,987.83
2017-09-09T06:03:44.956Z,987.84
2017-09-09T06:04:44.929Z,987.84
2017-09-09T06:05:44.913Z,987.89
2017-09-09T06:06:44.899Z,987.93
2017-09-09T06:07:44.880Z,987.91
2017-09-09T06:08:44.860Z,987.95
2017-09-09T06:09:44.840Z,987.94
2017-09-09T06:10:44.828Z,987.92
2017-09-09T06:11:44.809Z,987.89
2017-09-09T06:12:44.801Z,987.89
2017-09-09T06:13:44.769Z,987.91
2017-09-09T06:14:44.752Z,987.99
2017-09-09T06:15:44.739Z,988.05
2017-09-09T06:16:44.713Z,988.03
2017-09-09T06:17:44.700Z,988.01
2017-09-09T06:18:44.681Z,987.95
2017-09-09T06:19:44.660Z,987.94
2017-09-09T06:20:44.650Z,987.98
2017-09-09T06:21:44.632Z,987.96
2017-09-09T06:22:44.613Z,987.95
2017-09-09T06:23:44.589Z,987.97
2017-09-09T06:24:44.580Z,987.89
2017-09-09T06:25:44.559Z,987.92
2017-09-09T06:26:44.539Z,987.92
2017-09-09T06:27:44.520Z,987.95
2017-09-09T06:28:44.501Z,987.96
2017-09-09T06:29:44.485Z,987.97
2017-09-09T06:30:44.459Z,988
2017-09-09T06:31:44.447Z,988.02
2017-09-09T06:32:44.429Z,988
2017-09-09T06:33:44.412Z,988.02
2017-09-09T06:34:44.423Z,988.03
2017-09-09T06:35:44.369Z,987.99
2017-09-09T06:36:44.357Z,987.99
2017-09-09T06:37:44.341Z,988.02
2017-09-09T06:38:44.316Z,987.98
2017-09-09T06:39:44.301Z,987.95
2017-09-09T06:40:44.285Z,987.87
2017-09-09T06:41:44.263Z,987.85
2017-09-09T06:42:44.247Z,987.87
2017-09-09T06:43:44.226Z,987.86
2017-09-09T06:44:44.210Z,987.87
2017-09-09T06:45:44.190Z,987.84
2017-09-09T06:46:44.172Z,987.88
2017-09-09T06:47:44.158Z,987.86
2017-09-09T06:48:44.140Z,987.89
2017-09-09T06:49:44.120Z,987.92
2017-09-09T06:50:44.102Z,987.95
2017-09-09T06:51:44.093Z,987.93
2017-09-09T06:52:44.072Z,987.92
2017-09-09T06:53:44.050Z,987.91
2017-09-09T06:54:44.030Z,987.87
2017-09-09T06:55:44.021Z,987.86
2017-09-09T06:56:43.996Z,987.86
2017-09-09T06:57:43.980Z,987.89
2017-09-09T06:58:43.962Z,987.86
2017-09-09T06:59:43.938Z,987.87
2017-09-09T07:00:43.926Z,987.89
2017-09-09T07:01:43.907Z,987.97
2017-09-09T07:02:43.892Z,987.96
2017-09-09T07:03:43.872Z,987.96
2017-09-09T07:04:43.851Z,987.97
2017-09-09T07:05:43.837Z,988.02
2017-09-09T07:06:43.816Z,988
2017-09-09T07:07:43.803Z,988.04
2017-09-09T07:08:43.777Z,988.01
2017-09-09T07:09:43.761Z,988
2017-09-09T07:10:43.746Z,987.95
2017-09-09T07:11:43.730Z,987.96
2017-09-09T07:12:43.710Z,987.97
2017-09-09T07:13:43.689Z,987.94
2017-09-09T07:14:43.669Z,987.96
2017-09-09T07:15:43.656Z,987.94
2017-09-09T07:16:43.638Z,987.94
2017-09-09T07:17:43.619Z,987.99
2017-09-09T07:18:43.599Z,987.99
2017-09-09T07:19:43.583Z,988.01
2017-09-09T07:20:43.568Z,988.01
2017-09-09T07:21:43.556Z,988.01
2017-09-09T07:22:43.529Z,987.94
2017-09-09T07:23:43.513Z,987.94
2017-09-09T07:24:43.495Z,987.98
2017-09-09T07:25:43.472Z,987.99
2017-09-09T07:26:43.460Z,988.03
2017-09-09T07:27:43.439Z,987.99
2017-09-09T07:28:43.419Z,988.02
2017-09-09T07:29:43.399Z,987.98
2017-09-09T07:30:43.387Z,988
2017-09-09T07:31:43.370Z,988.02
2017-09-09T07:32:43.348Z,988.04
2017-09-09T07:33:43.331Z,988.06
2017-09-09T07:34:43.314Z,988.03
2017-09-09T07:35:43.292Z,988.08
2017-09-09T07:36:43.292Z,988.1
2017-09-09T07:37:43.260Z,988.16
2017-09-09T07:38:43.240Z,988.13
2017-09-09T07:39:43.225Z,988.09
2017-09-09T07:40:43.212Z,988.14
2017-09-09T07:41:43.190Z,988.13
2017-09-09T07:42:43.180Z,988.11
2017-09-09T07:43:43.161Z,988.11
2017-09-09T07:44:43.142Z,988.11
2017-09-09T07:45:43.119Z,988.08
2017-09-09T07:46:43.104Z,988.02
2017-09-09T07:47:43.078Z,988.08
2017-09-09T07:48:43.073Z,988.06
2017-09-09T07:49:43.048Z,988.05
2017-09-09T07:50:43.030Z,988.07
2017-09-09T07:51:43.008Z,988.04
2017-09-09T07:52:42.999Z,988.06
2017-09-09T07:53:42.976Z,988.09
2017-09-09T07:54:42.958Z,988.08
2017-09-09T07:55:42.936Z,988.11
2017-09-09T07:56:42.925Z,988.11
2017-09-09T07:57:42.903Z,988.11
2017-09-09T07:58:42.970Z,988.16
2017-09-09T07:59:42.871Z,988.21
2017-09-09T08:00:42.857Z,988.19
2017-09-09T08:01:42.836Z,988.2
2017-09-09T08:02:42.820Z,988.16
2017-09-09T08:03:42.798Z,988.19
2017-09-09T08:04:42.877Z,988.21
2017-09-09T08:05:42.761Z,988.17
2017-09-09T08:06:42.750Z,988.21
2017-09-09T08:07:42.728Z,988.17
2017-09-09T08:08:42.717Z,988.21
2017-09-09T08:09:42.699Z,988.19
2017-09-09T08:10:42.690Z,988.19
2017-09-09T08:11:42.658Z,988.21
2017-09-09T08:12:42.640Z,988.18
2017-09-09T08:13:42.622Z,988.22
2017-09-09T08:14:42.622Z,988.19
2017-09-09T08:15:42.588Z,988.23
2017-09-09T08:16:42.570Z,988.25
2017-09-09T08:17:42.561Z,988.29
2017-09-09T08:18:42.537Z,988.28
2017-09-09T08:19:42.516Z,988.37
2017-09-09T08:20:42.500Z,988.43
2017-09-09T08:21:42.484Z,988.42
2017-09-09T08:22:42.469Z,988.44
2017-09-09T08:23:42.447Z,988.38
2017-09-09T08:24:42.437Z,988.44
2017-09-09T08:25:42.416Z,988.46
2017-09-09T08:26:42.397Z,988.38
2017-09-09T08:27:42.377Z,988.37
2017-09-09T08:28:42.367Z,988.36
2017-09-09T08:29:42.348Z,988.39
2017-09-09T08:30:42.328Z,988.38
2017-09-09T08:31:42.305Z,988.37
2017-09-09T08:32:42.314Z,988.34
2017-09-09T08:33:42.279Z,988.35
2017-09-09T08:34:42.261Z,988.37
2017-09-09T08:35:42.245Z,988.44
2017-09-09T08:36:42.223Z,988.37
2017-09-09T08:37:42.211Z,988.44
2017-09-09T08:38:42.196Z,988.46
2017-09-09T08:39:42.178Z,988.49
2017-09-09T08:40:42.159Z,988.5
2017-09-09T08:41:42.148Z,988.51
2017-09-09T08:42:42.126Z,988.53
2017-09-09T08:43:42.107Z,988.54
2017-09-09T08:44:42.087Z,988.51
2017-09-09T08:45:42.074Z,988.55
2017-09-09T08:46:42.068Z,988.55
2017-09-09T08:47:42.040Z,988.5
2017-09-09T08:48:42.029Z,988.54
2017-09-09T08:49:42.017Z,988.59
2017-09-09T08:50:41.988Z,988.51
2017-09-09T08:51:41.973Z,988.6
2017-09-09T08:52:41.957Z,988.54
2017-09-09T08:53:41.943Z,988.64
2017-09-09T08:54:41.923Z,988.56
2017-09-09T08:55:41.910Z,988.61
2017-09-09T08:56:41.893Z,988.65
2017-09-09T08:57:41.869Z,988.66
2017-09-09T08:58:41.862Z,988.64
2017-09-09T08:59:41.838Z,988.61
2017-09-09T09:00:41.822Z,988.63
2017-09-09T09:01:41.808Z,988.61
2017-09-09T09:02:41.786Z,988.64
2017-09-09T09:03:41.800Z,988.61
2017-09-09T09:04:41.749Z,988.59
2017-09-09T09:05:41.737Z,988.64
2017-09-09T09:06:41.717Z,988.62
2017-09-09T09:07:41.707Z,988.66
2017-09-09T09:08:41.689Z,988.65
2017-09-09T09:09:41.670Z,988.62
2017-09-09T09:10:41.648Z,988.59
2017-09-09T09:11:41.632Z,988.64
2017-09-09T09:12:41.618Z,988.63
2017-09-09T09:13:41.598Z,988.68
2017-09-09T09:14:41.586Z,988.64
2017-09-09T09:15:41.564Z,988.68
2017-09-09T09:16:41.547Z,988.73
2017-09-09T09:17:41.539Z,988.72
2017-09-09T09:18:41.518Z,988.68
2017-09-09T09:19:41.495Z,988.71
2017-09-09T09:20:41.542Z,988.67
2017-09-09T09:21:41.462Z,988.72
2017-09-09T09:22:41.457Z,988.7
2017-09-09T09:23:41.426Z,988.66
2017-09-09T09:24:41.411Z,988.74
2017-09-09T09:25:41.398Z,988.71
2017-09-09T09:26:41.388Z,988.73
2017-09-09T09:27:41.361Z,988.74
2017-09-09T09:28:41.350Z,988.75
2017-09-09T09:29:41.326Z,988.83
2017-09-09T09:30:41.311Z,988.73
2017-09-09T09:31:41.298Z,988.78
2017-09-09T09:32:41.277Z,988.77
2017-09-09T09:33:41.268Z,988.78
2017-09-09T09:34:41.248Z,988.81
2017-09-09T09:35:41.239Z,988.83
2017-09-09T09:36:41.218Z,988.78
2017-09-09T09:37:41.198Z,988.81
2017-09-09T09:38:41.188Z,988.83
2017-09-09T09:39:41.167Z,988.86
2017-09-09T09:40:41.149Z,988.77
2017-09-09T09:41:41.136Z,988.81
2017-09-09T09:42:41.118Z,988.81
2017-09-09T09:43:41.107Z,988.95
2017-09-09T09:44:41.090Z,988.91
2017-09-09T09:45:41.065Z,988.87
2017-09-09T09:46:41.056Z,988.81
2017-09-09T09:47:41.032Z,988.83
2017-09-09T09:48:41.019Z,988.87
2017-09-09T09:49:41.003Z,988.84
2017-09-09T09:50:40.996Z,988.85
2017-09-09T09:51:40.970Z,988.85
2017-09-09T09:52:40.958Z,988.84
2017-09-09T09:53:40.940Z,988.85
2017-09-09T09:54:40.922Z,988.84
2017-09-09T09:55:40.920Z,988.81
2017-09-09T09:56:40.894Z,988.79
2017-09-09T09:57:40.877Z,988.79
2017-09-09T09:58:40.859Z,988.82
2017-09-09T09:59:40.852Z,988.87
2017-09-09T10:00:40.830Z,988.92
2017-09-09T10:01:40.813Z,988.9
2017-09-09T10:02:40.810Z,988.88
2017-09-09T10:03:40.786Z,989
2017-09-09T10:04:40.767Z,989
2017-09-09T10:05:40.760Z,988.94
2017-09-09T10:06:40.742Z,988.92
2017-09-09T10:07:40.722Z,988.94
2017-09-09T10:08:40.703Z,989.02
2017-09-09T10:09:40.689Z,989.01
2017-09-09T10:10:40.683Z,989.08
2017-09-09T10:11:40.658Z,989.14
2017-09-09T10:12:40.639Z,989.16
2017-09-09T10:13:40.624Z,989.22
2017-09-09T10:14:40.611Z,989.24
2017-09-09T10:15:40.591Z,989.29
2017-09-09T10:16:40.572Z,989.3
2017-09-09T10:17:40.559Z,989.25
2017-09-09T10:18:40.533Z,989.27
2017-09-09T10:19:40.522Z,989.28
2017-09-09T10:20:40.503Z,989.3
2017-09-09T10:21:40.490Z,989.28
2017-09-09T10:22:40.467Z,989.29
2017-09-09T10:23:40.456Z,989.34
2017-09-09T10:24:40.438Z,989.34
2017-09-09T10:25:40.418Z,989.36
2017-09-09T10:26:40.408Z,989.41
2017-09-09T10:27:40.391Z,989.37
2017-09-09T10:28:40.378Z,989.43
2017-09-09T10:29:40.355Z,989.47
2017-09-09T10:30:40.342Z,989.43
2017-09-09T10:31:40.329Z,989.43
2017-09-09T10:32:40.309Z,989.45
2017-09-09T10:33:40.291Z,989.42
2017-09-09T10:34:40.281Z,989.45
2017-09-09T10:35:40.260Z,989.43
2017-09-09T10:36:40.249Z,989.5
2017-09-09T10:37:40.227Z,989.47
2017-09-09T10:38:40.211Z,989.5
2017-09-09T10:39:40.199Z,989.52
2017-09-09T10:40:40.187Z,989.54
2017-09-09T10:41:40.170Z,989.52
2017-09-09T10:42:40.150Z,989.53
2017-09-09T10:43:40.139Z,989.61
2017-09-09T10:44:40.118Z,989.57
2017-09-09T10:45:40.099Z,989.63
2017-09-09T10:46:40.088Z,989.58
2017-09-09T10:47:40.080Z,989.65
2017-09-09T10:48:40.059Z,989.62
2017-09-09T10:49:40.034Z,989.57
2017-09-09T10:50:40.022Z,989.64
2017-09-09T10:51:40.003Z,989.63
2017-09-09T10:52:39.989Z,989.59
2017-09-09T10:53:39.980Z,989.63
2017-09-09T10:54:39.960Z,989.67
2017-09-09T10:55:39.950Z,989.64
2017-09-09T10:56:39.925Z,989.65
2017-09-09T10:57:39.910Z,989.62
2017-09-09T10:58:39.900Z,989.66
2017-09-09T10:59:39.879Z,989.63
2017-09-09T11:00:39.871Z,989.61
2017-09-09T11:01:39.848Z,989.57
2017-09-09T11:02:39.829Z,989.57
2017-09-09T11:03:39.819Z,989.61
2017-09-09T11:04:39.801Z,989.6
2017-09-09T11:05:39.789Z,989.66
2017-09-09T11:06:39.769Z,989.68
2017-09-09T11:07:39.756Z,989.69
2017-09-09T11:08:39.745Z,989.69
2017-09-09T11:09:39.727Z,989.68
2017-09-09T11:10:39.710Z,989.8
2017-09-09T11:11:39.696Z,989.8
2017-09-09T11:12:39.678Z,989.79
2017-09-09T11:13:39.724Z,989.82
2017-09-09T11:14:39.651Z,989.81
2017-09-09T11:15:39.639Z,989.81
2017-09-09T11:16:39.632Z,989.78
2017-09-09T11:17:39.626Z,989.75
2017-09-09T11:18:39.600Z,989.67
2017-09-09T11:19:39.678Z,989.72
2017-09-09T11:20:39.573Z,989.7
2017-09-09T11:21:39.559Z,989.67
2017-09-09T11:22:39.540Z,989.69
2017-09-09T11:23:39.540Z,989.71
2017-09-09T11:24:39.520Z,989.71
2017-09-09T11:25:39.501Z,989.76
2017-09-09T11:26:39.485Z,989.7
2017-09-09T11:27:39.520Z,989.67
2017-09-09T11:28:39.473Z,989.76
2017-09-09T11:29:39.450Z,989.77
2017-09-09T11:30:39.430Z,989.76
2017-09-09T11:31:39.419Z,989.82
2017-09-09T11:32:39.400Z,989.8
2017-09-09T11:33:39.394Z,989.83
2017-09-09T11:34:39.377Z,989.87
2017-09-09T11:35:39.360Z,989.89
2017-09-09T11:36:39.363Z,989.87
2017-09-09T11:37:39.337Z,989.9
2017-09-09T11:38:39.337Z,989.9
2017-09-09T11:39:39.308Z,989.89
2017-09-09T11:40:39.303Z,989.98
2017-09-09T11:41:39.290Z,989.97
2017-09-09T11:42:39.271Z,990.02
2017-09-09T11:43:39.257Z,990.04
2017-09-09T11:44:39.251Z,990.01
2017-09-09T11:45:39.231Z,990.13
2017-09-09T11:46:39.219Z,990.05
2017-09-09T11:47:39.207Z,990.09
2017-09-09T11:48:39.189Z,990.17
2017-09-09T11:49:39.191Z,990.17
2017-09-09T11:50:39.170Z,990.16
2017-09-09T11:51:39.162Z,990.24
2017-09-09T11:52:39.150Z,990.21
2017-09-09T11:53:39.133Z,990.12
2017-09-09T11:54:39.131Z,990.11
2017-09-09T11:55:39.114Z,990.15
2017-09-09T11:56:39.095Z,990.11
2017-09-09T11:57:39.100Z,990.11
2017-09-09T11:58:39.072Z,990.06
2017-09-09T11:59:39.059Z,990.1
2017-09-09T12:00:39.048Z,990.12
2017-09-09T12:01:39.040Z,990.13
2017-09-09T12:02:39.026Z,990.17
2017-09-09T12:03:39.012Z,990.09
2017-09-09T12:04:39.002Z,990.17
2017-09-09T12:05:38.986Z,990.11
2017-09-09T12:06:38.979Z,990.19
2017-09-09T12:07:38.963Z,990.22
2017-09-09T12:08:38.949Z,990.23
2017-09-09T12:09:38.936Z,990.19
2017-09-09T12:10:38.929Z,990.17
2017-09-09T12:11:38.921Z,990.26
2017-09-09T12:12:38.903Z,990.2
2017-09-09T12:13:38.889Z,990.23
2017-09-09T12:14:38.885Z,990.2
2017-09-09T12:15:38.871Z,990.27
2017-09-09T12:16:38.856Z,990.23
2017-09-09T12:17:38.841Z,990.3
2017-09-09T12:18:38.833Z,990.3
2017-09-09T12:19:38.820Z,990.31
2017-09-09T12:20:38.800Z,990.37
2017-09-09T12:21:38.790Z,990.38
2017-09-09T12:22:38.775Z,990.41
2017-09-09T12:23:38.770Z,990.35
2017-09-09T12:24:38.752Z,990.36
2017-09-09T12:25:38.743Z,990.36
2017-09-09T12:26:38.730Z,990.37
2017-09-09T12:27:38.722Z,990.38
2017-09-09T12:28:38.710Z,990.42
2017-09-09T12:29:38.706Z,990.46
2017-09-09T12:30:38.681Z,990.57
2017-09-09T12:31:38.671Z,990.54